Time;durP1;ratioP1;P1;durP2;ratioP2;P2;SDS_P1;SDS_P2;PMS_P1;PMS_P2;Temp;Humidity;BMP_temperature;BMP_pressure;BME280_temperature;BME280_humidity;BME280_pressure;Samples;Min_cycle;Max_cycle;Signal;HPM_P1;HPM_P2
2022/08/19 00:00:20;;;;;;;14.25;4.30;;;19.50;99.90;;;;;;4913288;29;20114;-88
2022/08/19 00:02:46;;;;;;;19.20;5.00;;;19.50;99.90;;;;;;4905145;29;20049;-90
2022/08/19 00:05:13;;;;;;;16.90;3.97;;;19.50;99.90;;;;;;4898662;29;20040;-89
2022/08/19 00:07:41;;;;;;;17.20;3.38;;;19.60;99.90;;;;;;4905040;29;20025;-88
2022/08/19 00:10:07;;;;;;;14.40;3.20;;;19.60;99.90;;;;;;4883693;29;20076;-89
2022/08/19 00:12:34;;;;;;;15.02;4.65;;;19.60;99.90;;;;;;4911268;29;20024;-89
2022/08/19 00:15:00;;;;;;;11.15;2.75;;;19.50;99.90;;;;;;4908622;29;20565;-89
2022/08/19 00:17:26;;;;;;;12.27;2.90;;;19.50;99.90;;;;;;4897150;29;20064;-89
2022/08/19 00:19:51;;;;;;;14.27;3.45;;;19.50;99.90;;;;;;4895932;29;20024;-90
2022/08/19 00:22:17;;;;;;;10.27;2.70;;;19.50;99.90;;;;;;4909395;29;20032;-88
2022/08/19 00:24:46;;;;;;;11.90;2.50;;;19.60;99.90;;;;;;4919879;29;20590;-88
2022/08/19 00:27:12;;;;;;;11.95;3.03;;;19.60;99.90;;;;;;4922385;29;20041;-89
2022/08/19 00:29:38;;;;;;;12.30;3.55;;;19.60;99.90;;;;;;4900166;29;20083;-88
2022/08/19 00:32:05;;;;;;;10.73;3.50;;;19.60;99.90;;;;;;4916420;29;20016;-88
2022/08/19 00:34:30;;;;;;;12.07;3.15;;;19.70;99.90;;;;;;4909230;29;20045;-88
2022/08/19 00:36:56;;;;;;;15.20;3.35;;;19.70;99.90;;;;;;4904943;29;20423;-88
2022/08/19 00:39:22;;;;;;;13.15;3.38;;;19.70;99.90;;;;;;4912156;29;20023;-88
2022/08/19 00:41:49;;;;;;;11.02;2.90;;;19.70;99.90;;;;;;4898617;29;20482;-88
2022/08/19 00:44:24;;;;;;;12.63;3.30;;;19.70;99.90;;;;;;4898339;29;20091;-88
2022/08/19 00:46:52;;;;;;;8.35;3.05;;;19.70;99.90;;;;;;4899848;29;20028;-88
2022/08/19 00:49:24;;;;;;;12.57;2.90;;;19.70;99.90;;;;;;4899049;29;20202;-88
2022/08/19 00:51:55;;;;;;;10.82;3.00;;;19.70;99.90;;;;;;4898665;29;20047;-89
2022/08/19 00:54:21;;;;;;;13.65;4.10;;;19.70;99.90;;;;;;4896771;29;20025;-89
2022/08/19 00:56:48;;;;;;;15.18;4.05;;;19.80;99.90;;;;;;4898334;29;20033;-89
2022/08/19 00:59:15;;;;;;;14.48;3.38;;;19.70;99.90;;;;;;4881284;29;20054;-89
2022/08/19 01:01:44;;;;;;;11.63;3.20;;;19.70;99.90;;;;;;4910816;29;20028;-89
2022/08/19 01:04:09;;;;;;;9.75;3.47;;;19.70;99.90;;;;;;4897752;29;20119;-89
2022/08/19 01:06:37;;;;;;;12.30;3.50;;;19.80;99.90;;;;;;4880657;29;20192;-89
2022/08/19 01:09:04;;;;;;;13.93;3.28;;;19.80;99.90;;;;;;4880650;29;20051;-89
2022/08/19 01:11:32;;;;;;;15.80;4.90;;;19.80;99.90;;;;;;4897497;29;20025;-89
2022/08/19 01:13:58;;;;;;;11.55;3.00;;;19.80;99.90;;;;;;4896850;29;20405;-89
2022/08/19 01:16:28;;;;;;;15.80;3.20;;;19.90;99.90;;;;;;4897307;29;20025;-89
2022/08/19 01:18:56;;;;;;;10.52;3.10;;;19.80;99.90;;;;;;4897511;29;20037;-89
2022/08/19 01:21:24;;;;;;;10.30;2.55;;;19.90;99.90;;;;;;4898340;29;20056;-89
2022/08/19 01:23:50;;;;;;;15.52;3.30;;;19.90;99.90;;;;;;4897359;29;20028;-89
2022/08/19 01:26:20;;;;;;;12.40;3.65;;;19.90;99.90;;;;;;4896968;29;20389;-89
2022/08/19 01:28:48;;;;;;;13.82;3.13;;;19.90;99.90;;;;;;4880021;29;20020;-89
2022/08/19 01:31:18;;;;;;;15.25;3.22;;;19.90;99.90;;;;;;4901854;29;20087;-89
2022/08/19 01:33:44;;;;;;;10.77;3.25;;;19.90;99.90;;;;;;4904361;29;20486;-88
2022/08/19 01:36:13;;;;;;;14.73;3.55;;;19.80;99.90;;;;;;4896611;29;20025;-89
2022/08/19 01:38:43;;;;;;;11.07;3.17;;;19.90;99.90;;;;;;4896560;29;20080;-89
2022/08/19 01:41:11;;;;;;;13.32;3.10;;;19.90;99.90;;;;;;4896930;29;20025;-89
2022/08/19 01:43:37;;;;;;;11.77;3.40;;;19.90;99.90;;;;;;4879961;29;20537;-89
2022/08/19 01:46:04;;;;;;;10.00;2.80;;;19.90;99.90;;;;;;4896548;29;20125;-89
2022/08/19 01:48:38;;;;;;;14.57;3.97;;;19.90;99.90;;;;;;4879834;29;20029;-89
2022/08/19 01:51:04;;;;;;;10.82;3.40;;;19.90;99.90;;;;;;4896698;29;20029;-89
2022/08/19 01:53:30;;;;;;;9.80;3.47;;;19.90;99.90;;;;;;4879658;29;20029;-89
2022/08/19 01:55:56;;;;;;;11.60;3.25;;;20.00;99.90;;;;;;4879822;29;20048;-89
2022/08/19 01:58:29;;;;;;;11.27;2.80;;;19.90;99.90;;;;;;4896580;29;20028;-89
2022/08/19 02:00:54;;;;;;;9.85;3.13;;;19.90;99.90;;;;;;4879563;29;20032;-89
2022/08/19 02:03:20;;;;;;;9.82;3.08;;;20.00;99.90;;;;;;4896539;29;20017;-89
2022/08/19 02:05:46;;;;;;;10.80;3.33;;;20.00;99.90;;;;;;4886198;29;20490;-88
2022/08/19 02:08:11;;;;;;;7.50;2.63;;;20.00;99.90;;;;;;4896871;29;20165;-89
2022/08/19 02:10:42;;;;;;;10.90;2.80;;;20.00;99.90;;;;;;4896210;29;20025;-90
2022/08/19 02:13:09;;;;;;;7.88;2.80;;;20.00;99.90;;;;;;4896148;29;20027;-89
2022/08/19 02:15:35;;;;;;;13.60;3.10;;;20.00;99.90;;;;;;4895808;29;20535;-88
2022/08/19 02:18:00;;;;;;;10.40;2.97;;;20.00;99.90;;;;;;4896179;29;20064;-89
2022/08/19 02:20:26;;;;;;;10.90;3.75;;;20.00;99.90;;;;;;4895993;29;20029;-89
2022/08/19 02:22:52;;;;;;;5.57;2.05;;;20.00;99.90;;;;;;4895957;29;20123;-90
2022/08/19 02:25:18;;;;;;;6.10;2.30;;;20.00;99.90;;;;;;4895817;29;20265;-89
2022/08/19 02:27:43;;;;;;;6.88;2.67;;;20.00;99.90;;;;;;4895794;29;20013;-89
2022/08/19 02:30:15;;;;;;;9.15;2.42;;;20.00;99.90;;;;;;4879161;29;20602;-89
2022/08/19 02:32:41;;;;;;;7.00;2.67;;;20.00;99.90;;;;;;4908846;29;20429;-89
2022/08/19 02:35:08;;;;;;;7.60;2.17;;;20.10;99.90;;;;;;4895871;29;20407;-89
2022/08/19 02:40:19;;;;;;;;;;;20.00;99.90;;;;;;4896705;29;20103;-89
2022/08/19 02:42:45;;;;;;;3.95;2.20;;;20.00;99.90;;;;;;4896146;29;19972;-89
2022/08/19 02:45:13;;;;;;;10.38;2.55;;;19.90;99.90;;;;;;4895750;29;20037;-89
2022/08/19 02:47:38;;;;;;;5.35;2.00;;;20.00;99.90;;;;;;4895112;29;20025;-89
2022/08/19 02:50:05;;;;;;;8.30;1.63;;;20.00;99.90;;;;;;4895596;29;20035;-89
2022/08/19 02:52:33;;;;;;;6.28;1.42;;;20.00;99.90;;;;;;4895544;29;20048;-89
2022/08/19 02:54:59;;;;;;;3.58;1.48;;;20.00;99.90;;;;;;4878386;29;20028;-89
2022/08/19 02:57:26;;;;;;;2.85;1.65;;;19.90;99.90;;;;;;4878917;29;20112;-90
2022/08/19 02:59:52;;;;;;;8.80;1.80;;;19.90;99.90;;;;;;4895920;29;20032;-89
2022/08/19 03:02:18;;;;;;;4.32;1.20;;;19.90;99.90;;;;;;4895233;29;20021;-89
2022/08/19 03:04:44;;;;;;;4.30;1.30;;;19.90;99.90;;;;;;4895302;29;20037;-88
2022/08/19 03:07:13;;;;;;;3.03;1.27;;;19.80;99.90;;;;;;4895156;29;20026;-89
2022/08/19 03:09:39;;;;;;;3.75;1.40;;;19.80;99.90;;;;;;4895296;29;20032;-89
2022/08/19 03:12:05;;;;;;;3.83;1.13;;;19.80;99.90;;;;;;4878446;29;20512;-89
2022/08/19 03:14:32;;;;;;;2.72;1.15;;;19.70;99.90;;;;;;4894864;29;20060;-89
2022/08/19 03:16:58;;;;;;;4.97;1.25;;;19.70;99.90;;;;;;4878107;29;20066;-89
2022/08/19 03:19:24;;;;;;;3.47;1.27;;;19.80;99.90;;;;;;4877999;29;20028;-89
2022/08/19 03:21:51;;;;;;;2.30;1.00;;;19.80;99.90;;;;;;4879744;29;20040;-88
2022/08/19 03:24:18;;;;;;;5.25;1.42;;;19.80;99.90;;;;;;4906471;29;20040;-89
2022/08/19 03:26:47;;;;;;;2.58;1.08;;;19.70;99.90;;;;;;4891274;29;20094;-90
2022/08/19 03:29:14;;;;;;;3.08;1.00;;;19.80;99.90;;;;;;4895462;29;20105;-89
2022/08/19 03:31:43;;;;;;;3.30;1.42;;;19.80;99.90;;;;;;4911430;29;20088;-89
2022/08/19 03:34:11;;;;;;;2.90;1.42;;;19.80;99.90;;;;;;4917849;29;20052;-88
2022/08/19 03:36:37;;;;;;;5.28;1.40;;;19.80;99.90;;;;;;4911930;29;20028;-88
2022/08/19 03:39:03;;;;;;;5.22;1.25;;;19.80;99.90;;;;;;4917454;29;20051;-89
2022/08/19 03:41:31;;;;;;;2.97;1.20;;;19.80;99.90;;;;;;4913544;29;20116;-89
2022/08/19 03:43:58;;;;;;;3.92;1.10;;;19.90;99.90;;;;;;4894778;29;20051;-89
2022/08/19 03:46:27;;;;;;;3.90;1.20;;;19.90;99.90;;;;;;4894817;29;20421;-89
2022/08/19 03:48:55;;;;;;;3.83;1.40;;;19.90;99.90;;;;;;4877949;29;20393;-89
2022/08/19 03:51:22;;;;;;;3.35;1.52;;;19.90;99.90;;;;;;4893967;29;20020;-89
2022/08/19 03:53:49;;;;;;;6.00;1.50;;;19.90;99.90;;;;;;4895256;29;20028;-89
2022/08/19 03:56:15;;;;;;;3.47;1.23;;;19.80;99.90;;;;;;4895017;29;20083;-89
2022/08/19 03:58:42;;;;;;;6.35;1.60;;;19.80;99.90;;;;;;4898471;29;20021;-89
2022/08/19 04:01:12;;;;;;;5.18;1.73;;;19.70;99.90;;;;;;4899076;29;20025;-89
2022/08/19 04:03:38;;;;;;;3.90;1.60;;;19.70;99.90;;;;;;4899333;29;20063;-91
2022/08/19 04:06:24;;;;;;;4.10;1.67;;;19.70;99.90;;;;;;4893467;29;20048;-86
2022/08/19 04:08:51;;;;;;;7.53;1.48;;;19.60;99.90;;;;;;4911063;29;20028;-85
2022/08/19 04:11:22;;;;;;;2.92;1.30;;;19.70;99.90;;;;;;4909500;29;20096;-86
2022/08/19 04:13:50;;;;;;;6.65;1.20;;;19.60;99.90;;;;;;4908284;29;20033;-86
2022/08/19 04:16:17;;;;;;;4.30;1.48;;;19.60;99.90;;;;;;4900825;29;20028;-85
2022/08/19 04:18:43;;;;;;;4.38;1.30;;;19.60;99.90;;;;;;4909242;29;20220;-86
2022/08/19 04:21:19;;;;;;;6.57;1.73;;;19.60;99.90;;;;;;4905909;29;20167;-86
2022/08/19 04:23:45;;;;;;;4.20;1.40;;;19.60;99.90;;;;;;4899492;29;20485;-85
2022/08/19 04:26:27;;;;;;;3.13;1.33;;;19.60;99.90;;;;;;4902773;29;20640;-85
2022/08/19 04:28:54;;;;;;;4.93;1.88;;;19.60;99.90;;;;;;4907138;29;20028;-86
2022/08/19 04:31:25;;;;;;;3.45;1.73;;;19.70;99.90;;;;;;4908808;29;20036;-86
2022/08/19 04:33:52;;;;;;;5.60;1.60;;;19.60;99.90;;;;;;4913005;29;20091;-85
2022/08/19 04:36:23;;;;;;;3.90;1.50;;;19.60;99.90;;;;;;4905187;29;20024;-86
2022/08/19 04:38:52;;;;;;;3.97;1.40;;;19.60;99.90;;;;;;4900731;29;20107;-85
2022/08/19 04:44:02;;;;;;;2.00;0.93;;;19.50;99.90;;;;;;4901657;29;20212;-85
2022/08/19 04:46:30;;;;;;;1.80;0.80;;;19.60;99.90;;;;;;4904355;29;20024;-85
2022/08/19 04:48:56;;;;;;;2.55;0.98;;;19.50;99.90;;;;;;4897795;29;20553;-83
2022/08/19 04:51:23;;;;;;;3.42;1.73;;;19.50;99.90;;;;;;4899656;29;20068;-83
2022/08/19 04:53:48;;;;;;;3.08;1.25;;;19.50;99.90;;;;;;4903550;29;20029;-92
2022/08/19 04:56:17;;;;;;;3.00;1.30;;;19.50;99.90;;;;;;4900156;29;20025;-93
2022/08/19 04:58:44;;;;;;;2.55;0.90;;;19.60;99.90;;;;;;4901230;29;20152;-91
2022/08/19 05:01:17;;;;;;;2.03;0.70;;;19.50;99.90;;;;;;4902334;29;20025;-95
2022/08/19 05:03:43;;;;;;;2.90;0.73;;;19.50;99.90;;;;;;4901226;29;20643;-83
2022/08/19 05:06:11;;;;;;;4.35;1.10;;;19.50;99.90;;;;;;4898986;29;20104;-83
2022/08/19 05:08:43;;;;;;;2.70;0.90;;;19.50;99.90;;;;;;4897632;29;20085;-83
2022/08/19 05:11:21;;;;;;;3.03;1.00;;;19.50;99.90;;;;;;4880900;29;20041;-83
2022/08/19 05:13:48;;;;;;;2.03;0.90;;;19.50;99.90;;;;;;4896676;29;20021;-84
2022/08/19 05:16:15;;;;;;;2.03;1.20;;;19.60;99.90;;;;;;4898576;29;20389;-84
2022/08/19 05:24:13;;;;;;;3.05;1.45;;;19.70;99.90;;;;;;4897737;29;20039;-84
2022/08/19 05:26:42;;;;;;;2.63;1.10;;;19.60;99.90;;;;;;4897008;29;20036;-83
2022/08/19 05:29:08;;;;;;;3.40;0.90;;;19.60;99.90;;;;;;4897069;29;20021;-84
2022/08/19 05:31:35;;;;;;;3.88;1.20;;;19.60;99.90;;;;;;4909899;29;20033;-84
2022/08/19 05:34:03;;;;;;;7.05;1.58;;;19.70;99.90;;;;;;4901962;29;20067;-85
2022/08/19 05:36:34;;;;;;;4.82;1.05;;;19.70;99.90;;;;;;4899614;29;20020;-82
2022/08/19 05:39:00;;;;;;;2.35;0.85;;;19.70;99.90;;;;;;4906679;29;20036;-83
2022/08/19 05:41:30;;;;;;;2.38;1.00;;;19.70;99.90;;;;;;4903031;29;20035;-83
2022/08/19 05:44:02;;;;;;;5.20;1.38;;;19.60;99.90;;;;;;4896470;29;20073;-82
2022/08/19 05:46:28;;;;;;;3.28;0.90;;;19.70;99.90;;;;;;4878954;29;20390;-83
2022/08/19 05:48:56;;;;;;;2.40;0.70;;;19.70;99.90;;;;;;4895889;29;20073;-83
2022/08/19 05:51:22;;;;;;;3.33;1.58;;;19.60;99.90;;;;;;4897305;29;20379;-85
2022/08/19 05:53:48;;;;;;;3.83;1.27;;;19.60;99.90;;;;;;4896141;29;20502;-82
2022/08/19 05:56:16;;;;;;;2.33;1.13;;;19.70;99.90;;;;;;4896329;29;20031;-83
2022/08/19 05:58:44;;;;;;;2.17;1.17;;;19.70;99.90;;;;;;4895885;29;20021;-93
2022/08/19 06:01:13;;;;;;;2.47;1.10;;;19.80;99.90;;;;;;4896123;29;20048;-83
2022/08/19 06:03:39;;;;;;;2.85;1.30;;;19.90;99.90;;;;;;4895687;29;20017;-83
2022/08/19 06:06:06;;;;;;;3.42;1.40;;;19.90;99.90;;;;;;4895832;29;20059;-83
2022/08/19 06:08:33;;;;;;;3.67;1.10;;;19.90;99.90;;;;;;4892707;29;20107;-83
2022/08/19 06:11:32;;;;;;;1.35;0.90;;;19.80;99.90;;;;;;4885378;29;20749;-83
2022/08/19 06:14:01;;;;;;;2.13;0.80;;;19.80;99.90;;;;;;4895315;29;20037;-82
2022/08/19 06:16:28;;;;;;;1.90;0.77;;;19.70;99.90;;;;;;4896127;29;20409;-86
2022/08/19 06:18:54;;;;;;;3.03;1.10;;;19.70;99.90;;;;;;4895694;29;20020;-88
2022/08/19 06:21:23;;;;;;;2.72;0.90;;;19.70;99.90;;;;;;4895362;29;20527;-88
2022/08/19 06:23:50;;;;;;;2.33;0.90;;;19.70;99.90;;;;;;4895600;29;20100;-85
2022/08/19 06:26:18;;;;;;;2.38;1.30;;;19.80;99.90;;;;;;4878723;29;20047;-87
2022/08/19 06:28:46;;;;;;;3.42;0.95;;;19.80;99.90;;;;;;4878842;29;20035;-85
2022/08/19 06:31:16;;;;;;;2.60;1.05;;;19.80;99.90;;;;;;4900183;29;20087;-86
2022/08/19 06:33:44;;;;;;;2.53;1.05;;;19.90;99.90;;;;;;4903474;29;20056;-85
2022/08/19 06:36:31;;;;;;;3.78;1.00;;;19.90;99.90;;;;;;4878220;29;20025;-86
2022/08/19 06:39:09;;;;;;;4.53;1.33;;;20.00;99.90;;;;;;4895353;29;20028;-87
2022/08/19 06:41:40;;;;;;;3.30;1.00;;;20.10;99.90;;;;;;4895071;29;20038;-88
2022/08/19 06:44:07;;;;;;;2.45;1.17;;;20.20;99.90;;;;;;4894936;29;20036;-86
2022/08/19 06:46:33;;;;;;;2.08;1.15;;;20.30;99.90;;;;;;4895908;29;20419;-88
2022/08/19 06:48:59;;;;;;;2.25;0.93;;;20.50;99.90;;;;;;4896456;29;20029;-86
2022/08/19 06:51:26;;;;;;;4.15;0.95;;;20.70;99.90;;;;;;4896250;29;20045;-88
2022/08/19 06:53:54;;;;;;;4.50;1.30;;;20.90;99.90;;;;;;4895014;29;20017;-85
2022/08/19 06:56:24;;;;;;;2.75;0.90;;;21.10;99.90;;;;;;4896685;29;20079;-90
2022/08/19 06:58:52;;;;;;;2.60;0.80;;;21.20;99.90;;;;;;4905618;29;20226;-88
2022/08/19 07:01:18;;;;;;;1.48;0.50;;;21.30;99.90;;;;;;4914356;29;20564;-89
2022/08/19 07:03:46;;;;;;;1.17;0.60;;;21.30;99.90;;;;;;4907077;29;20028;-88
2022/08/19 07:06:17;;;;;;;3.60;0.85;;;21.40;99.90;;;;;;4891268;29;20465;-88
2022/08/19 07:08:43;;;;;;;2.60;0.70;;;21.40;99.90;;;;;;4907106;29;20039;-88
2022/08/19 07:11:12;;;;;;;2.40;1.00;;;21.40;99.90;;;;;;4910872;29;20529;-89
2022/08/19 07:13:39;;;;;;;2.03;0.80;;;21.40;99.90;;;;;;4900997;29;20016;-89
2022/08/19 07:16:07;;;;;;;4.38;0.70;;;21.60;99.90;;;;;;4895034;29;20103;-89
2022/08/19 07:18:35;;;;;;;3.10;0.80;;;21.60;99.90;;;;;;4906384;29;20020;-88
2022/08/19 07:21:27;;;;;;;2.67;0.90;;;21.60;99.90;;;;;;4915887;29;20036;-87
2022/08/19 07:23:53;;;;;;;1.95;0.80;;;21.60;99.90;;;;;;4914793;29;20043;-87
2022/08/19 07:26:24;;;;;;;4.47;1.15;;;21.70;99.90;;;;;;4928404;29;20032;-88
2022/08/19 07:28:50;;;;;;;5.65;0.90;;;21.60;99.90;;;;;;4931378;29;20039;-89
2022/08/19 07:31:19;;;;;;;3.28;1.10;;;21.60;99.90;;;;;;4915892;29;20445;-87
2022/08/19 07:33:47;;;;;;;1.52;1.13;;;21.50;99.90;;;;;;4922816;29;20068;-95
2022/08/19 07:36:16;;;;;;;3.00;1.27;;;21.60;99.90;;;;;;4923389;29;20107;-86
2022/08/19 07:38:44;;;;;;;3.17;1.63;;;21.70;99.90;;;;;;4932967;29;20034;-86
2022/08/19 07:41:12;;;;;;;2.53;1.35;;;21.70;99.90;;;;;;4919000;29;20029;-85
2022/08/19 07:43:39;;;;;;;1.65;1.15;;;21.60;99.90;;;;;;4925744;29;20043;-87
2022/08/19 07:46:06;;;;;;;4.03;1.15;;;21.60;99.90;;;;;;4923523;29;20028;-87
2022/08/19 07:48:33;;;;;;;3.13;1.10;;;21.60;99.90;;;;;;4914771;29;20111;-86
2022/08/19 07:51:04;;;;;;;3.55;1.27;;;21.60;99.90;;;;;;4909358;29;20029;-87
2022/08/19 07:53:32;;;;;;;3.38;1.38;;;21.60;99.90;;;;;;4919096;29;20572;-87
2022/08/19 07:56:03;;;;;;;3.88;1.80;;;21.70;99.90;;;;;;4914475;29;20030;-84
2022/08/19 07:58:31;;;;;;;3.17;1.23;;;21.80;99.90;;;;;;4909701;29;20055;-84
2022/08/19 08:00:57;;;;;;;3.17;0.88;;;21.80;99.90;;;;;;4919606;29;20095;-85
2022/08/19 08:09:10;;;;;;;4.20;1.20;;;21.90;99.90;;;;;;4912944;29;20501;-84
2022/08/19 08:09:12;;;;;;;;;;;21.80;99.90;;;;;;4922521;29;20080;-84
2022/08/19 08:11:40;;;;;;;7.03;1.42;;;21.90;99.90;;;;;;4915325;29;19902;-84
2022/08/19 08:14:06;;;;;;;5.03;1.50;;;22.10;99.90;;;;;;4910187;29;20068;-85
2022/08/19 08:16:38;;;;;;;5.55;1.70;;;22.20;99.90;;;;;;4922106;29;20168;-85
2022/08/19 08:19:05;;;;;;;3.40;1.63;;;22.20;99.90;;;;;;4915963;29;20032;-83
2022/08/19 08:21:32;;;;;;;6.78;2.10;;;22.10;99.90;;;;;;4922043;29;20368;-83
2022/08/19 08:23:57;;;;;;;7.25;2.03;;;22.20;99.90;;;;;;4913155;29;20024;-82
2022/08/19 08:26:24;;;;;;;4.22;1.25;;;22.20;99.90;;;;;;4922137;29;20031;-82
2022/08/19 08:28:51;;;;;;;7.13;1.50;;;22.10;99.90;;;;;;4917014;29;20191;-83
2022/08/19 08:31:18;;;;;;;5.93;1.23;;;22.10;99.90;;;;;;4917822;29;20095;-82
2022/08/19 08:33:45;;;;;;;4.32;1.10;;;22.00;99.90;;;;;;4920825;29;20063;-82
2022/08/19 08:36:13;;;;;;;4.43;1.23;;;22.00;99.90;;;;;;4916609;29;20249;-82
2022/08/19 08:38:40;;;;;;;3.20;0.90;;;22.20;99.90;;;;;;4914166;29;20031;-84
2022/08/19 08:41:19;;;;;;;4.28;2.00;;;22.40;99.90;;;;;;4909984;29;20653;-82
2022/08/19 08:43:48;;;;;;;4.38;0.90;;;22.80;99.90;;;;;;4906862;29;20051;-83
2022/08/19 08:46:40;;;;;;;6.55;1.42;;;22.90;99.90;;;;;;4904469;29;20040;-82
2022/08/19 08:49:49;;;;;;;5.50;0.80;;;22.80;99.90;;;;;;4914437;29;20028;-86
2022/08/19 08:52:27;;;;;;;4.85;1.58;;;22.90;99.90;;;;;;4912766;29;20032;-86
2022/08/19 08:54:57;;;;;;;4.05;1.52;;;23.10;99.90;;;;;;4919281;29;20236;-86
2022/08/19 08:57:37;;;;;;;4.60;1.00;;;23.30;99.90;;;;;;4919635;29;20023;-86
2022/08/19 09:00:06;;;;;;;5.40;1.10;;;23.40;99.90;;;;;;4900905;29;20064;-85
2022/08/19 09:02:32;;;;;;;3.15;1.08;;;23.40;99.90;;;;;;4913992;29;20051;-86
2022/08/19 09:04:58;;;;;;;5.50;1.42;;;23.40;99.90;;;;;;4916238;29;20033;-86
2022/08/19 09:08:06;;;;;;;8.27;1.20;;;23.20;99.90;;;;;;4918351;29;20019;-85
2022/08/19 09:11:05;;;;;;;7.95;1.23;;;23.20;99.90;;;;;;4909685;29;20032;-85
2022/08/19 09:13:49;;;;;;;9.45;1.23;;;23.00;99.90;;;;;;4908544;29;20037;-85
2022/08/19 09:16:20;;;;;;;7.50;1.15;;;23.00;99.90;;;;;;4908852;29;20040;-85
2022/08/19 09:18:55;;;;;;;7.22;1.58;;;22.80;99.90;;;;;;4917431;29;20009;-85
2022/08/19 09:21:25;;;;;;;5.65;1.38;;;22.70;99.90;;;;;;4918058;29;20449;-85
2022/08/19 09:23:51;;;;;;;3.35;0.95;;;22.80;99.90;;;;;;4908271;29;20001;-85
2022/08/19 09:26:21;;;;;;;2.90;0.65;;;22.70;99.90;;;;;;4915447;29;20289;-85
2022/08/19 09:28:49;;;;;;;3.13;0.70;;;22.80;99.90;;;;;;4914460;29;20016;-85
2022/08/19 09:31:38;;;;;;;2.45;0.90;;;22.80;99.90;;;;;;4912243;29;20342;-85
2022/08/19 09:34:04;;;;;;;2.92;0.60;;;22.70;99.90;;;;;;4912050;29;20052;-85
2022/08/19 09:36:35;;;;;;;1.90;0.50;;;22.80;99.90;;;;;;4914716;29;20063;-93
2022/08/19 09:39:03;;;;;;;2.67;0.73;;;22.90;99.90;;;;;;4895847;29;20387;-85
2022/08/19 09:41:29;;;;;;;2.20;0.63;;;23.20;99.90;;;;;;4915526;29;20039;-85
2022/08/19 09:43:56;;;;;;;3.40;0.70;;;23.40;99.90;;;;;;4916565;29;20115;-86
2022/08/19 09:46:25;;;;;;;2.22;0.95;;;23.30;99.90;;;;;;4912070;29;20481;-86
2022/08/19 09:48:52;;;;;;;3.28;0.90;;;23.50;99.90;;;;;;4911459;29;20028;-86
2022/08/19 09:51:24;;;;;;;2.15;0.80;;;23.60;99.90;;;;;;4909165;29;20035;-86
2022/08/19 09:53:53;;;;;;;2.22;0.73;;;23.70;99.90;;;;;;4914778;29;20032;-86
2022/08/19 09:56:20;;;;;;;2.67;0.70;;;23.40;99.90;;;;;;4908318;29;20462;-86
2022/08/19 09:58:47;;;;;;;3.42;0.90;;;23.20;99.90;;;;;;4907470;29;20017;-86
2022/08/19 10:01:18;;;;;;;2.35;0.93;;;23.30;99.90;;;;;;4896777;29;20082;-85
2022/08/19 10:03:52;;;;;;;2.25;0.60;;;23.50;99.90;;;;;;4892010;29;20080;-86
2022/08/19 10:06:18;;;;;;;3.05;0.98;;;23.50;99.90;;;;;;4917715;29;20095;-87
2022/08/19 10:08:44;;;;;;;2.20;0.50;;;23.50;99.90;;;;;;4909120;29;20032;-86
2022/08/19 10:11:10;;;;;;;2.33;0.80;;;23.50;99.90;;;;;;4906557;29;20024;-86
2022/08/19 10:13:36;;;;;;;3.30;0.88;;;23.40;99.90;;;;;;4916789;29;20046;-90
2022/08/19 10:16:06;;;;;;;2.58;0.50;;;23.20;99.90;;;;;;4908810;29;20462;-87
2022/08/19 10:18:33;;;;;;;2.08;0.77;;;23.00;99.90;;;;;;4915574;29;20422;-87
2022/08/19 10:21:10;;;;;;;1.67;0.55;;;22.90;99.90;;;;;;4912776;29;20103;-87
2022/08/19 10:23:38;;;;;;;1.73;0.50;;;22.90;99.90;;;;;;4910731;29;20488;-87
2022/08/19 10:26:05;;;;;;;1.70;0.50;;;22.90;99.90;;;;;;4904077;29;20040;-86
2022/08/19 10:28:33;;;;;;;2.33;0.88;;;23.00;99.90;;;;;;4915770;29;20025;-87
2022/08/19 10:31:02;;;;;;;2.67;0.70;;;23.00;99.90;;;;;;4910378;29;20568;-85
2022/08/19 10:33:28;;;;;;;5.50;0.80;;;22.90;99.90;;;;;;4910854;29;20228;-86
2022/08/19 10:36:03;;;;;;;1.85;0.60;;;22.90;99.90;;;;;;4909527;29;20047;-86
2022/08/19 10:38:29;;;;;;;4.15;1.02;;;22.80;99.90;;;;;;4912154;29;20401;-87
2022/08/19 10:40:55;;;;;;;1.83;0.63;;;22.80;99.90;;;;;;4906075;29;20186;-86
2022/08/19 10:43:20;;;;;;;2.25;0.70;;;22.70;99.90;;;;;;4915586;29;20098;-86
2022/08/19 10:45:53;;;;;;;2.80;0.70;;;22.80;99.90;;;;;;4900085;29;20584;-86
2022/08/19 10:48:22;;;;;;;4.63;0.98;;;22.90;99.90;;;;;;4913811;29;20090;-86
2022/08/19 10:53:32;;;;;;;2.85;1.13;;;23.60;99.90;;;;;;4914520;29;20042;-86
2022/08/19 10:58:41;;;;;;;6.47;2.10;;;24.10;99.90;;;;;;4913361;29;20500;-86
2022/08/19 11:01:07;;;;;;;3.80;1.17;;;24.40;99.90;;;;;;4909208;29;20028;-86
2022/08/19 11:03:33;;;;;;;5.70;1.27;;;24.60;99.90;;;;;;4902583;29;20027;-86
2022/08/19 11:06:08;;;;;;;5.50;1.10;;;24.80;99.90;;;;;;4911174;29;20094;-86
2022/08/19 11:08:37;;;;;;;3.63;0.70;;;24.90;99.90;;;;;;4914057;29;20092;-87
2022/08/19 11:11:05;;;;;;;5.88;0.85;;;24.50;99.90;;;;;;4920390;29;20064;-86
2022/08/19 11:13:37;;;;;;;2.92;1.20;;;24.30;99.90;;;;;;4909539;29;20028;-86
2022/08/19 11:16:13;;;;;;;3.47;0.93;;;24.20;99.90;;;;;;4914043;29;20051;-86
2022/08/19 11:18:43;;;;;;;2.10;0.63;;;24.20;99.90;;;;;;4903228;29;20023;-86
2022/08/19 11:21:17;;;;;;;3.30;0.88;;;24.00;99.90;;;;;;4919602;29;20079;-85
2022/08/19 11:23:43;;;;;;;4.22;1.17;;;23.70;99.90;;;;;;4918441;29;20201;-86
2022/08/19 11:26:09;;;;;;;3.10;0.95;;;23.60;99.90;;;;;;4919080;29;20079;-89
2022/08/19 11:28:35;;;;;;;2.33;0.93;;;23.40;99.90;;;;;;4911807;29;20131;-85
2022/08/19 11:31:03;;;;;;;3.15;0.80;;;23.50;99.90;;;;;;4905702;29;20036;-86
2022/08/19 11:33:29;;;;;;;2.80;1.15;;;23.80;99.90;;;;;;4907353;29;20024;-86
2022/08/19 11:35:58;;;;;;;3.25;0.60;;;24.20;99.90;;;;;;4908709;29;20044;-86
2022/08/19 11:38:24;;;;;;;2.28;0.90;;;24.40;99.90;;;;;;4903391;29;20260;-85
2022/08/19 11:40:59;;;;;;;2.67;0.95;;;24.50;99.90;;;;;;4880485;29;20020;-86
2022/08/19 11:43:26;;;;;;;2.28;0.70;;;24.70;99.90;;;;;;4893998;29;20067;-86
2022/08/19 11:45:53;;;;;;;2.28;0.60;;;24.90;99.90;;;;;;4901246;29;20040;-85
2022/08/19 11:48:21;;;;;;;1.30;0.65;;;24.80;99.90;;;;;;4905056;29;20392;-86
2022/08/19 11:50:52;;;;;;;4.63;0.77;;;25.00;99.90;;;;;;4910816;29;20497;-87
2022/08/19 11:53:19;;;;;;;13.57;1.20;;;25.40;99.90;;;;;;4907805;29;20245;-87
2022/08/19 11:55:46;;;;;;;2.13;0.70;;;25.30;99.90;;;;;;4910275;29;20051;-86
2022/08/19 11:58:13;;;;;;;5.40;0.85;;;25.00;99.90;;;;;;4900184;29;20455;-86
2022/08/19 12:00:39;;;;;;;2.90;0.90;;;24.60;99.90;;;;;;4905748;29;20036;-87
2022/08/19 12:03:05;;;;;;;2.25;0.90;;;24.50;99.90;;;;;;4902367;29;20025;-86
2022/08/19 12:05:31;;;;;;;3.58;0.77;;;24.20;99.90;;;;;;4906206;29;20047;-87
2022/08/19 12:07:57;;;;;;;4.97;0.95;;;24.30;99.90;;;;;;4905934;29;20032;-86
2022/08/19 12:10:23;;;;;;;6.55;1.05;;;24.50;99.90;;;;;;4906895;29;20171;-87
2022/08/19 12:12:50;;;;;;;3.50;0.90;;;24.50;99.90;;;;;;4905876;29;20028;-87
2022/08/19 12:15:15;;;;;;;4.13;1.35;;;24.20;99.90;;;;;;4891445;29;20052;-86
2022/08/19 12:17:42;;;;;;;4.57;0.93;;;24.00;99.90;;;;;;4910385;29;20496;-87
2022/08/19 12:20:10;;;;;;;5.28;0.82;;;24.00;99.90;;;;;;4908117;29;20028;-87
2022/08/19 12:22:37;;;;;;;4.60;0.82;;;23.90;99.90;;;;;;4892394;29;20036;-86
2022/08/19 12:25:04;;;;;;;3.88;1.30;;;24.00;99.90;;;;;;4905722;29;20040;-85
2022/08/19 12:27:30;;;;;;;3.92;0.90;;;24.00;99.90;;;;;;4908129;29;20036;-86
2022/08/19 12:29:56;;;;;;;4.65;0.65;;;23.80;99.90;;;;;;4906192;29;20052;-85
2022/08/19 12:32:24;;;;;;;2.00;0.63;;;23.70;99.90;;;;;;4905970;29;20028;-85
2022/08/19 12:34:50;;;;;;;4.05;0.82;;;23.60;99.90;;;;;;4896823;29;20043;-85
2022/08/19 12:37:16;;;;;;;4.28;0.60;;;23.70;99.90;;;;;;4900917;29;20123;-85
2022/08/19 12:39:43;;;;;;;1.33;0.57;;;23.70;99.90;;;;;;4909296;29;20036;-85
2022/08/19 12:42:10;;;;;;;2.58;0.68;;;23.60;99.90;;;;;;4904212;29;20028;-85
2022/08/19 12:44:39;;;;;;;2.95;0.98;;;23.50;99.90;;;;;;4889773;29;20032;-85
2022/08/19 12:47:06;;;;;;;2.42;0.57;;;23.50;99.90;;;;;;4906324;29;20131;-85
2022/08/19 12:49:33;;;;;;;5.05;0.95;;;23.60;99.90;;;;;;4905524;29;20020;-86
2022/08/19 12:52:00;;;;;;;3.05;0.80;;;23.70;99.90;;;;;;4906985;29;20493;-85
2022/08/19 12:54:26;;;;;;;2.20;0.70;;;23.80;99.90;;;;;;4903491;29;20020;-86
2022/08/19 12:56:51;;;;;;;5.63;0.70;;;24.00;99.90;;;;;;4909166;29;20058;-85
2022/08/19 12:59:18;;;;;;;2.97;0.90;;;24.10;99.90;;;;;;4903574;29;20059;-85
2022/08/19 13:01:45;;;;;;;4.07;1.02;;;24.30;99.90;;;;;;4906557;29;20036;-85
2022/08/19 13:04:10;;;;;;;3.75;0.75;;;24.80;99.90;;;;;;4907123;29;20539;-91
2022/08/19 13:06:37;;;;;;;2.75;0.85;;;25.30;99.90;;;;;;4906224;29;20067;-85
2022/08/19 13:09:04;;;;;;;3.13;0.90;;;25.50;99.90;;;;;;4906997;29;20033;-85
2022/08/19 13:11:34;;;;;;;4.68;0.70;;;26.10;99.90;;;;;;4909421;29;20028;-85